sensor_id;sensor_type;location;lat;lon;timestamp;P1;durP1;ratioP1;P2;durP2;ratioP2
24743;SDS011;12844;52.110;5.548;2022-07-22T00:00:05;1.45;;;1.13;;
24743;SDS011;12844;52.110;5.548;2022-07-22T00:02:32;1.00;;;0.90;;
24743;SDS011;12844;52.110;5.548;2022-07-22T00:04:58;1.67;;;1.20;;
24743;SDS011;12844;52.110;5.548;2022-07-22T00:07:23;1.83;;;1.20;;
24743;SDS011;12844;52.110;5.548;2022-07-22T00:09:49;1.30;;;1.20;;
24743;SDS011;12844;52.110;5.548;2022-07-22T00:12:15;2.35;;;1.30;;
24743;SDS011;12844;52.110;5.548;2022-07-22T00:14:40;1.92;;;1.20;;
24743;SDS011;12844;52.110;5.548;2022-07-22T00:17:06;1.70;;;1.10;;
24743;SDS011;12844;52.110;5.548;2022-07-22T00:19:32;2.90;;;1.48;;
24743;SDS011;12844;52.110;5.548;2022-07-22T00:21:57;1.40;;;1.10;;
24743;SDS011;12844;52.110;5.548;2022-07-22T00:24:23;0.98;;;0.90;;
24743;SDS011;12844;52.110;5.548;2022-07-22T00:26:49;1.60;;;1.20;;
24743;SDS011;12844;52.110;5.548;2022-07-22T00:29:14;2.03;;;1.13;;
24743;SDS011;12844;52.110;5.548;2022-07-22T00:31:40;1.42;;;0.98;;
24743;SDS011;12844;52.110;5.548;2022-07-22T00:34:05;2.10;;;1.10;;
24743;SDS011;12844;52.110;5.548;2022-07-22T00:36:31;1.42;;;1.10;;
24743;SDS011;12844;52.110;5.548;2022-07-22T00:38:57;2.15;;;1.23;;
24743;SDS011;12844;52.110;5.548;2022-07-22T00:41:23;1.40;;;1.20;;
24743;SDS011;12844;52.110;5.548;2022-07-22T00:46:29;1.75;;;1.20;;
24743;SDS011;12844;52.110;5.548;2022-07-22T00:48:55;1.88;;;1.20;;
24743;SDS011;12844;52.110;5.548;2022-07-22T00:51:21;1.48;;;1.17;;
24743;SDS011;12844;52.110;5.548;2022-07-22T00:53:48;2.13;;;1.10;;
24743;SDS011;12844;52.110;5.548;2022-07-22T00:56:15;1.30;;;1.00;;
24743;SDS011;12844;52.110;5.548;2022-07-22T00:58:41;2.63;;;1.10;;
24743;SDS011;12844;52.110;5.548;2022-07-22T01:01:08;2.10;;;1.20;;
24743;SDS011;12844;52.110;5.548;2022-07-22T01:03:34;1.50;;;1.10;;
24743;SDS011;12844;52.110;5.548;2022-07-22T01:06:00;2.60;;;1.23;;
24743;SDS011;12844;52.110;5.548;2022-07-22T01:08:26;1.40;;;1.13;;
24743;SDS011;12844;52.110;5.548;2022-07-22T01:10:52;1.60;;;0.93;;
24743;SDS011;12844;52.110;5.548;2022-07-22T01:13:17;1.42;;;1.10;;
24743;SDS011;12844;52.110;5.548;2022-07-22T01:15:43;2.13;;;1.10;;
24743;SDS011;12844;52.110;5.548;2022-07-22T01:18:08;0.90;;;0.90;;
24743;SDS011;12844;52.110;5.548;2022-07-22T01:20:34;1.65;;;1.15;;
24743;SDS011;12844;52.110;5.548;2022-07-22T01:23:00;1.38;;;1.02;;
24743;SDS011;12844;52.110;5.548;2022-07-22T01:25:26;1.73;;;1.00;;
24743;SDS011;12844;52.110;5.548;2022-07-22T01:27:52;1.42;;;1.00;;
24743;SDS011;12844;52.110;5.548;2022-07-22T01:30:18;1.48;;;1.08;;
24743;SDS011;12844;52.110;5.548;2022-07-22T01:32:44;1.58;;;1.10;;
24743;SDS011;12844;52.110;5.548;2022-07-22T01:35:10;1.85;;;1.20;;
24743;SDS011;12844;52.110;5.548;2022-07-22T01:37:35;2.03;;;1.10;;
24743;SDS011;12844;52.110;5.548;2022-07-22T01:40:01;1.73;;;0.95;;
24743;SDS011;12844;52.110;5.548;2022-07-22T01:42:28;1.10;;;0.90;;
24743;SDS011;12844;52.110;5.548;2022-07-22T01:44:53;2.63;;;1.02;;
24743;SDS011;12844;52.110;5.548;2022-07-22T01:47:19;1.23;;;0.90;;
24743;SDS011;12844;52.110;5.548;2022-07-22T01:49:44;1.05;;;0.93;;
24743;SDS011;12844;52.110;5.548;2022-07-22T01:52:10;0.90;;;0.80;;
24743;SDS011;12844;52.110;5.548;2022-07-22T01:54:36;1.67;;;1.20;;
24743;SDS011;12844;52.110;5.548;2022-07-22T01:57:02;1.08;;;0.98;;
24743;SDS011;12844;52.110;5.548;2022-07-22T01:59:28;1.10;;;0.90;;
24743;SDS011;12844;52.110;5.548;2022-07-22T02:01:53;1.77;;;0.90;;
24743;SDS011;12844;52.110;5.548;2022-07-22T02:04:19;1.30;;;0.90;;
24743;SDS011;12844;52.110;5.548;2022-07-22T02:06:44;1.42;;;1.00;;
24743;SDS011;12844;52.110;5.548;2022-07-22T02:09:10;2.25;;;1.40;;
24743;SDS011;12844;52.110;5.548;2022-07-22T02:11:36;1.38;;;1.05;;
24743;SDS011;12844;52.110;5.548;2022-07-22T02:14:01;1.70;;;0.98;;
24743;SDS011;12844;52.110;5.548;2022-07-22T02:16:27;2.20;;;1.20;;
24743;SDS011;12844;52.110;5.548;2022-07-22T02:18:53;1.50;;;0.93;;
24743;SDS011;12844;52.110;5.548;2022-07-22T02:21:18;1.38;;;0.88;;
24743;SDS011;12844;52.110;5.548;2022-07-22T02:23:45;1.25;;;0.93;;
24743;SDS011;12844;52.110;5.548;2022-07-22T02:26:11;1.85;;;0.93;;
24743;SDS011;12844;52.110;5.548;2022-07-22T02:28:36;1.90;;;1.00;;
24743;SDS011;12844;52.110;5.548;2022-07-22T02:31:02;1.60;;;0.90;;
24743;SDS011;12844;52.110;5.548;2022-07-22T02:33:28;1.10;;;0.80;;
24743;SDS011;12844;52.110;5.548;2022-07-22T02:35:54;1.02;;;0.80;;
24743;SDS011;12844;52.110;5.548;2022-07-22T02:38:21;2.15;;;1.08;;
24743;SDS011;12844;52.110;5.548;2022-07-22T02:40:46;1.25;;;0.90;;
24743;SDS011;12844;52.110;5.548;2022-07-22T02:43:12;0.90;;;0.80;;
24743;SDS011;12844;52.110;5.548;2022-07-22T02:45:37;1.52;;;1.00;;
24743;SDS011;12844;52.110;5.548;2022-07-22T02:48:03;1.95;;;0.90;;
24743;SDS011;12844;52.110;5.548;2022-07-22T02:50:29;1.13;;;0.95;;
24743;SDS011;12844;52.110;5.548;2022-07-22T02:52:55;1.08;;;0.80;;
24743;SDS011;12844;52.110;5.548;2022-07-22T02:55:20;1.58;;;1.17;;
24743;SDS011;12844;52.110;5.548;2022-07-22T02:57:46;1.73;;;1.00;;
24743;SDS011;12844;52.110;5.548;2022-07-22T03:00:11;1.65;;;1.00;;
24743;SDS011;12844;52.110;5.548;2022-07-22T03:02:38;1.13;;;1.00;;
24743;SDS011;12844;52.110;5.548;2022-07-22T03:05:04;1.40;;;0.90;;
24743;SDS011;12844;52.110;5.548;2022-07-22T03:07:31;1.10;;;1.00;;
24743;SDS011;12844;52.110;5.548;2022-07-22T03:09:57;1.50;;;1.00;;
24743;SDS011;12844;52.110;5.548;2022-07-22T03:12:22;1.30;;;0.95;;
24743;SDS011;12844;52.110;5.548;2022-07-22T03:14:48;1.63;;;0.90;;
24743;SDS011;12844;52.110;5.548;2022-07-22T03:17:14;1.63;;;0.90;;
24743;SDS011;12844;52.110;5.548;2022-07-22T03:19:39;1.08;;;0.98;;
24743;SDS011;12844;52.110;5.548;2022-07-22T03:22:05;1.63;;;0.90;;
24743;SDS011;12844;52.110;5.548;2022-07-22T03:24:30;1.40;;;0.95;;
24743;SDS011;12844;52.110;5.548;2022-07-22T03:26:56;1.25;;;0.98;;
24743;SDS011;12844;52.110;5.548;2022-07-22T03:29:22;1.38;;;1.08;;
24743;SDS011;12844;52.110;5.548;2022-07-22T03:31:47;1.65;;;1.10;;
24743;SDS011;12844;52.110;5.548;2022-07-22T03:34:13;1.00;;;0.95;;
24743;SDS011;12844;52.110;5.548;2022-07-22T03:36:38;1.48;;;1.00;;
24743;SDS011;12844;52.110;5.548;2022-07-22T03:39:04;1.70;;;0.90;;
24743;SDS011;12844;52.110;5.548;2022-07-22T03:41:30;1.38;;;1.15;;
24743;SDS011;12844;52.110;5.548;2022-07-22T03:43:55;2.05;;;0.95;;
24743;SDS011;12844;52.110;5.548;2022-07-22T03:46:21;1.08;;;0.80;;
24743;SDS011;12844;52.110;5.548;2022-07-22T03:48:46;1.25;;;0.90;;
24743;SDS011;12844;52.110;5.548;2022-07-22T04:01:33;1.42;;;1.08;;
24743;SDS011;12844;52.110;5.548;2022-07-22T04:03:59;1.15;;;0.90;;
24743;SDS011;12844;52.110;5.548;2022-07-22T04:06:24;1.00;;;0.90;;
24743;SDS011;12844;52.110;5.548;2022-07-22T04:08:50;1.83;;;1.00;;
24743;SDS011;12844;52.110;5.548;2022-07-22T04:11:15;1.15;;;0.95;;
24743;SDS011;12844;52.110;5.548;2022-07-22T04:13:41;1.42;;;1.02;;
24743;SDS011;12844;52.110;5.548;2022-07-22T04:16:06;1.27;;;1.00;;
24743;SDS011;12844;52.110;5.548;2022-07-22T04:18:32;1.55;;;1.08;;
24743;SDS011;12844;52.110;5.548;2022-07-22T04:20:58;0.73;;;0.73;;
24743;SDS011;12844;52.110;5.548;2022-07-22T04:23:24;1.52;;;0.90;;
24743;SDS011;12844;52.110;5.548;2022-07-22T04:25:49;1.48;;;0.93;;
24743;SDS011;12844;52.110;5.548;2022-07-22T04:28:15;1.48;;;0.90;;
24743;SDS011;12844;52.110;5.548;2022-07-22T04:30:41;1.52;;;1.10;;
24743;SDS011;12844;52.110;5.548;2022-07-22T04:33:06;1.70;;;1.00;;
24743;SDS011;12844;52.110;5.548;2022-07-22T04:35:32;1.20;;;1.00;;
24743;SDS011;12844;52.110;5.548;2022-07-22T04:37:58;1.08;;;0.88;;
24743;SDS011;12844;52.110;5.548;2022-07-22T04:40:23;1.48;;;0.90;;
24743;SDS011;12844;52.110;5.548;2022-07-22T04:42:49;1.25;;;0.80;;
24743;SDS011;12844;52.110;5.548;2022-07-22T04:45:14;1.67;;;1.00;;
24743;SDS011;12844;52.110;5.548;2022-07-22T04:47:40;1.48;;;1.27;;
24743;SDS011;12844;52.110;5.548;2022-07-22T04:50:05;1.90;;;0.90;;
24743;SDS011;12844;52.110;5.548;2022-07-22T04:52:31;1.05;;;0.90;;
24743;SDS011;12844;52.110;5.548;2022-07-22T04:54:57;1.10;;;0.85;;
24743;SDS011;12844;52.110;5.548;2022-07-22T04:57:24;2.25;;;0.90;;
24743;SDS011;12844;52.110;5.548;2022-07-22T04:59:50;1.25;;;0.93;;
24743;SDS011;12844;52.110;5.548;2022-07-22T05:02:16;1.13;;;0.90;;
24743;SDS011;12844;52.110;5.548;2022-07-22T05:04:42;1.02;;;0.90;;
24743;SDS011;12844;52.110;5.548;2022-07-22T05:07:07;1.30;;;1.00;;
24743;SDS011;12844;52.110;5.548;2022-07-22T05:09:33;1.00;;;0.90;;
24743;SDS011;12844;52.110;5.548;2022-07-22T05:11:58;1.10;;;1.00;;
24743;SDS011;12844;52.110;5.548;2022-07-22T05:14:24;0.80;;;0.80;;
24743;SDS011;12844;52.110;5.548;2022-07-22T05:16:50;0.77;;;0.70;;
24743;SDS011;12844;52.110;5.548;2022-07-22T05:19:15;0.90;;;0.77;;
24743;SDS011;12844;52.110;5.548;2022-07-22T05:21:41;1.25;;;0.80;;
24743;SDS011;12844;52.110;5.548;2022-07-22T05:24:06;1.73;;;1.20;;
24743;SDS011;12844;52.110;5.548;2022-07-22T05:26:32;1.08;;;0.95;;
24743;SDS011;12844;52.110;5.548;2022-07-22T05:28:58;1.27;;;0.80;;
24743;SDS011;12844;52.110;5.548;2022-07-22T05:31:24;1.00;;;0.80;;
24743;SDS011;12844;52.110;5.548;2022-07-22T05:33:49;1.85;;;0.95;;
24743;SDS011;12844;52.110;5.548;2022-07-22T05:36:15;1.08;;;0.80;;
24743;SDS011;12844;52.110;5.548;2022-07-22T05:38:41;0.90;;;0.70;;
24743;SDS011;12844;52.110;5.548;2022-07-22T05:41:06;1.58;;;0.95;;
24743;SDS011;12844;52.110;5.548;2022-07-22T05:43:32;1.08;;;0.90;;
24743;SDS011;12844;52.110;5.548;2022-07-22T05:45:57;1.17;;;0.85;;
24743;SDS011;12844;52.110;5.548;2022-07-22T05:48:23;1.48;;;0.90;;
24743;SDS011;12844;52.110;5.548;2022-07-22T05:50:49;1.70;;;0.80;;
24743;SDS011;12844;52.110;5.548;2022-07-22T05:53:14;0.90;;;0.80;;
24743;SDS011;12844;52.110;5.548;2022-07-22T05:55:40;1.55;;;1.00;;
24743;SDS011;12844;52.110;5.548;2022-07-22T05:58:06;1.00;;;0.80;;
24743;SDS011;12844;52.110;5.548;2022-07-22T06:00:31;1.35;;;0.90;;
24743;SDS011;12844;52.110;5.548;2022-07-22T06:02:57;1.23;;;0.73;;
24743;SDS011;12844;52.110;5.548;2022-07-22T06:05:22;1.40;;;1.10;;
24743;SDS011;12844;52.110;5.548;2022-07-22T06:07:48;1.23;;;0.90;;
24743;SDS011;12844;52.110;5.548;2022-07-22T06:10:14;1.17;;;0.80;;
24743;SDS011;12844;52.110;5.548;2022-07-22T06:12:39;1.10;;;0.70;;
24743;SDS011;12844;52.110;5.548;2022-07-22T06:15:05;0.90;;;0.70;;
24743;SDS011;12844;52.110;5.548;2022-07-22T06:17:31;0.80;;;0.65;;
24743;SDS011;12844;52.110;5.548;2022-07-22T06:19:57;1.65;;;0.80;;
24743;SDS011;12844;52.110;5.548;2022-07-22T06:22:23;1.63;;;0.90;;
24743;SDS011;12844;52.110;5.548;2022-07-22T06:24:48;1.60;;;0.93;;
24743;SDS011;12844;52.110;5.548;2022-07-22T06:27:14;0.80;;;0.80;;
24743;SDS011;12844;52.110;5.548;2022-07-22T06:29:39;2.40;;;0.90;;
24743;SDS011;12844;52.110;5.548;2022-07-22T06:32:06;1.48;;;0.80;;
24743;SDS011;12844;52.110;5.548;2022-07-22T06:34:32;0.85;;;0.73;;
24743;SDS011;12844;52.110;5.548;2022-07-22T06:36:57;1.67;;;0.85;;
24743;SDS011;12844;52.110;5.548;2022-07-22T06:39:23;1.15;;;0.88;;
24743;SDS011;12844;52.110;5.548;2022-07-22T06:41:49;1.20;;;0.70;;
24743;SDS011;12844;52.110;5.548;2022-07-22T06:44:14;0.70;;;0.70;;
24743;SDS011;12844;52.110;5.548;2022-07-22T06:46:40;1.40;;;1.10;;
24743;SDS011;12844;52.110;5.548;2022-07-22T06:49:05;0.88;;;0.80;;
24743;SDS011;12844;52.110;5.548;2022-07-22T06:51:31;1.02;;;0.70;;
24743;SDS011;12844;52.110;5.548;2022-07-22T06:53:57;0.95;;;0.70;;
24743;SDS011;12844;52.110;5.548;2022-07-22T06:56:22;0.88;;;0.80;;
24743;SDS011;12844;52.110;5.548;2022-07-22T06:58:48;1.00;;;0.80;;
24743;SDS011;12844;52.110;5.548;2022-07-22T07:01:13;0.73;;;0.70;;
24743;SDS011;12844;52.110;5.548;2022-07-22T07:03:39;1.05;;;0.80;;
24743;SDS011;12844;52.110;5.548;2022-07-22T07:06:06;0.82;;;0.70;;
24743;SDS011;12844;52.110;5.548;2022-07-22T07:08:33;1.05;;;0.80;;
24743;SDS011;12844;52.110;5.548;2022-07-22T07:10:59;1.10;;;0.75;;
24743;SDS011;12844;52.110;5.548;2022-07-22T07:13:24;0.88;;;0.77;;
24743;SDS011;12844;52.110;5.548;2022-07-22T07:15:50;1.02;;;0.75;;
24743;SDS011;12844;52.110;5.548;2022-07-22T07:18:15;0.88;;;0.80;;
24743;SDS011;12844;52.110;5.548;2022-07-22T07:20:41;0.73;;;0.65;;
24743;SDS011;12844;52.110;5.548;2022-07-22T07:23:06;0.70;;;0.70;;
24743;SDS011;12844;52.110;5.548;2022-07-22T07:25:32;1.38;;;0.70;;
24743;SDS011;12844;52.110;5.548;2022-07-22T07:27:58;1.02;;;0.60;;
24743;SDS011;12844;52.110;5.548;2022-07-22T07:30:24;1.05;;;0.80;;
24743;SDS011;12844;52.110;5.548;2022-07-22T07:32:50;0.85;;;0.70;;
24743;SDS011;12844;52.110;5.548;2022-07-22T07:35:15;1.02;;;0.73;;
24743;SDS011;12844;52.110;5.548;2022-07-22T07:37:41;0.88;;;0.77;;
24743;SDS011;12844;52.110;5.548;2022-07-22T07:40:07;0.90;;;0.70;;
24743;SDS011;12844;52.110;5.548;2022-07-22T07:42:33;1.25;;;0.80;;
24743;SDS011;12844;52.110;5.548;2022-07-22T07:44:59;1.02;;;0.90;;
24743;SDS011;12844;52.110;5.548;2022-07-22T07:47:24;1.10;;;0.73;;
24743;SDS011;12844;52.110;5.548;2022-07-22T07:49:50;0.98;;;0.88;;
24743;SDS011;12844;52.110;5.548;2022-07-22T07:52:16;1.05;;;0.80;;
24743;SDS011;12844;52.110;5.548;2022-07-22T07:54:42;1.10;;;0.73;;
24743;SDS011;12844;52.110;5.548;2022-07-22T07:57:09;1.00;;;0.80;;
24743;SDS011;12844;52.110;5.548;2022-07-22T07:59:36;1.83;;;1.00;;
24743;SDS011;12844;52.110;5.548;2022-07-22T08:02:02;1.10;;;0.90;;
24743;SDS011;12844;52.110;5.548;2022-07-22T08:04:29;1.17;;;1.00;;
24743;SDS011;12844;52.110;5.548;2022-07-22T08:06:54;0.80;;;0.70;;
24743;SDS011;12844;52.110;5.548;2022-07-22T08:09:20;1.17;;;0.90;;
24743;SDS011;12844;52.110;5.548;2022-07-22T08:11:45;1.00;;;0.65;;
24743;SDS011;12844;52.110;5.548;2022-07-22T08:14:11;1.02;;;0.80;;
24743;SDS011;12844;52.110;5.548;2022-07-22T08:16:36;0.95;;;0.85;;
24743;SDS011;12844;52.110;5.548;2022-07-22T08:19:02;1.27;;;0.82;;
24743;SDS011;12844;52.110;5.548;2022-07-22T08:21:28;0.80;;;0.80;;
24743;SDS011;12844;52.110;5.548;2022-07-22T08:23:54;0.80;;;0.77;;
24743;SDS011;12844;52.110;5.548;2022-07-22T08:26:19;0.90;;;0.65;;
24743;SDS011;12844;52.110;5.548;2022-07-22T08:28:45;1.23;;;0.70;;
24743;SDS011;12844;52.110;5.548;2022-07-22T08:31:11;0.90;;;0.75;;
24743;SDS011;12844;52.110;5.548;2022-07-22T08:33:36;1.27;;;0.77;;
24743;SDS011;12844;52.110;5.548;2022-07-22T08:36:02;0.80;;;0.70;;
24743;SDS011;12844;52.110;5.548;2022-07-22T08:38:28;1.48;;;0.93;;
24743;SDS011;12844;52.110;5.548;2022-07-22T08:40:54;1.30;;;0.80;;
24743;SDS011;12844;52.110;5.548;2022-07-22T08:43:21;0.93;;;0.70;;
24743;SDS011;12844;52.110;5.548;2022-07-22T08:45:47;0.60;;;0.60;;
24743;SDS011;12844;52.110;5.548;2022-07-22T08:48:13;1.23;;;0.57;;
24743;SDS011;12844;52.110;5.548;2022-07-22T08:50:39;0.73;;;0.70;;
24743;SDS011;12844;52.110;5.548;2022-07-22T08:53:07;1.17;;;0.80;;
24743;SDS011;12844;52.110;5.548;2022-07-22T08:55:39;1.05;;;0.70;;
24743;SDS011;12844;52.110;5.548;2022-07-22T08:58:06;0.90;;;0.80;;
24743;SDS011;12844;52.110;5.548;2022-07-22T09:00:31;1.08;;;0.70;;
24743;SDS011;12844;52.110;5.548;2022-07-22T09:02:57;0.80;;;0.80;;
24743;SDS011;12844;52.110;5.548;2022-07-22T09:05:22;1.48;;;0.73;;
24743;SDS011;12844;52.110;5.548;2022-07-22T09:07:48;1.00;;;0.90;;
24743;SDS011;12844;52.110;5.548;2022-07-22T09:10:15;1.15;;;0.82;;
24743;SDS011;12844;52.110;5.548;2022-07-22T09:12:55;1.13;;;0.85;;
24743;SDS011;12844;52.110;5.548;2022-07-22T09:15:24;0.77;;;0.75;;
24743;SDS011;12844;52.110;5.548;2022-07-22T09:17:55;1.95;;;0.70;;
24743;SDS011;12844;52.110;5.548;2022-07-22T09:20:20;0.60;;;0.60;;
24743;SDS011;12844;52.110;5.548;2022-07-22T09:22:47;0.82;;;0.60;;
24743;SDS011;12844;52.110;5.548;2022-07-22T09:28:08;0.93;;;0.83;;
24743;SDS011;12844;52.110;5.548;2022-07-22T09:30:42;1.05;;;0.70;;
24743;SDS011;12844;52.110;5.548;2022-07-22T09:33:12;0.93;;;0.70;;
24743;SDS011;12844;52.110;5.548;2022-07-22T09:35:38;0.70;;;0.70;;
24743;SDS011;12844;52.110;5.548;2022-07-22T09:38:05;1.30;;;0.70;;
24743;SDS011;12844;52.110;5.548;2022-07-22T09:40:33;0.80;;;0.80;;
24743;SDS011;12844;52.110;5.548;2022-07-22T09:43:01;0.95;;;0.80;;
24743;SDS011;12844;52.110;5.548;2022-07-22T09:45:30;0.95;;;0.60;;
24743;SDS011;12844;52.110;5.548;2022-07-22T09:47:57;0.90;;;0.77;;
24743;SDS011;12844;52.110;5.548;2022-07-22T09:50:25;1.00;;;0.70;;
24743;SDS011;12844;52.110;5.548;2022-07-22T09:52:58;0.85;;;0.68;;
24743;SDS011;12844;52.110;5.548;2022-07-22T09:55:25;1.77;;;0.88;;
24743;SDS011;12844;52.110;5.548;2022-07-22T09:57:53;0.95;;;0.60;;
24743;SDS011;12844;52.110;5.548;2022-07-22T10:00:21;0.90;;;0.57;;
24743;SDS011;12844;52.110;5.548;2022-07-22T10:02:52;1.05;;;0.80;;
24743;SDS011;12844;52.110;5.548;2022-07-22T10:05:23;0.82;;;0.60;;
24743;SDS011;12844;52.110;5.548;2022-07-22T10:07:51;1.52;;;0.88;;
24743;SDS011;12844;52.110;5.548;2022-07-22T10:10:18;0.82;;;0.50;;
24743;SDS011;12844;52.110;5.548;2022-07-22T10:12:47;1.30;;;0.70;;
24743;SDS011;12844;52.110;5.548;2022-07-22T10:15:14;0.77;;;0.70;;
24743;SDS011;12844;52.110;5.548;2022-07-22T10:17:44;0.80;;;0.70;;
24743;SDS011;12844;52.110;5.548;2022-07-22T10:20:19;1.90;;;0.70;;
24743;SDS011;12844;52.110;5.548;2022-07-22T10:25:17;0.70;;;0.70;;
24743;SDS011;12844;52.110;5.548;2022-07-22T10:27:48;0.80;;;0.70;;
24743;SDS011;12844;52.110;5.548;2022-07-22T10:30:20;0.90;;;0.70;;
24743;SDS011;12844;52.110;5.548;2022-07-22T10:35:54;1.50;;;0.70;;
24743;SDS011;12844;52.110;5.548;2022-07-22T10:38:22;0.93;;;0.70;;
24743;SDS011;12844;52.110;5.548;2022-07-22T10:43:25;1.33;;;0.75;;
24743;SDS011;12844;52.110;5.548;2022-07-22T10:45:59;0.80;;;0.80;;
24743;SDS011;12844;52.110;5.548;2022-07-22T10:51:12;0.80;;;0.70;;
24743;SDS011;12844;52.110;5.548;2022-07-22T10:56:27;1.23;;;0.90;;
24743;SDS011;12844;52.110;5.548;2022-07-22T11:01:35;0.77;;;0.77;;
24743;SDS011;12844;52.110;5.548;2022-07-22T11:04:17;1.15;;;0.75;;
24743;SDS011;12844;52.110;5.548;2022-07-22T11:06:45;0.93;;;0.70;;
24743;SDS011;12844;52.110;5.548;2022-07-22T11:09:12;0.77;;;0.60;;
24743;SDS011;12844;52.110;5.548;2022-07-22T11:16:53;0.95;;;0.80;;
24743;SDS011;12844;52.110;5.548;2022-07-22T11:19:21;1.20;;;0.80;;
24743;SDS011;12844;52.110;5.548;2022-07-22T11:21:49;1.67;;;0.88;;
24743;SDS011;12844;52.110;5.548;2022-07-22T11:24:16;0.93;;;0.80;;
24743;SDS011;12844;52.110;5.548;2022-07-22T11:26:44;1.10;;;0.75;;
24743;SDS011;12844;52.110;5.548;2022-07-22T11:29:16;0.93;;;0.80;;
24743;SDS011;12844;52.110;5.548;2022-07-22T11:31:42;1.00;;;0.68;;
24743;SDS011;12844;52.110;5.548;2022-07-22T11:34:11;0.82;;;0.80;;
24743;SDS011;12844;52.110;5.548;2022-07-22T11:36:38;0.70;;;0.70;;
24743;SDS011;12844;52.110;5.548;2022-07-22T11:39:06;0.80;;;0.60;;
24743;SDS011;12844;52.110;5.548;2022-07-22T11:41:33;0.70;;;0.70;;
24743;SDS011;12844;52.110;5.548;2022-07-22T11:43:59;0.93;;;0.70;;
24743;SDS011;12844;52.110;5.548;2022-07-22T11:46:25;1.17;;;0.88;;
24743;SDS011;12844;52.110;5.548;2022-07-22T11:48:52;0.80;;;0.80;;
24743;SDS011;12844;52.110;5.548;2022-07-22T11:51:18;0.70;;;0.70;;
24743;SDS011;12844;52.110;5.548;2022-07-22T11:53:44;1.23;;;0.80;;
24743;SDS011;12844;52.110;5.548;2022-07-22T11:56:10;1.25;;;0.77;;
24743;SDS011;12844;52.110;5.548;2022-07-22T11:58:43;0.85;;;0.80;;
24743;SDS011;12844;52.110;5.548;2022-07-22T12:01:12;0.90;;;0.80;;
24743;SDS011;12844;52.110;5.548;2022-07-22T12:03:40;0.60;;;0.60;;
24743;SDS011;12844;52.110;5.548;2022-07-22T12:06:11;1.33;;;0.82;;
24743;SDS011;12844;52.110;5.548;2022-07-22T12:08:41;1.38;;;0.88;;
24743;SDS011;12844;52.110;5.548;2022-07-22T12:11:10;1.02;;;0.80;;
24743;SDS011;12844;52.110;5.548;2022-07-22T12:13:38;0.60;;;0.60;;
24743;SDS011;12844;52.110;5.548;2022-07-22T12:18:44;0.73;;;0.65;;
24743;SDS011;12844;52.110;5.548;2022-07-22T12:21:20;1.23;;;0.70;;
24743;SDS011;12844;52.110;5.548;2022-07-22T12:23:50;0.82;;;0.60;;
24743;SDS011;12844;52.110;5.548;2022-07-22T12:32:01;0.90;;;0.80;;
24743;SDS011;12844;52.110;5.548;2022-07-22T12:34:38;0.70;;;0.63;;
24743;SDS011;12844;52.110;5.548;2022-07-22T12:40:08;0.70;;;0.70;;
24743;SDS011;12844;52.110;5.548;2022-07-22T12:42:46;0.60;;;0.60;;
24743;SDS011;12844;52.110;5.548;2022-07-22T12:45:25;1.08;;;0.82;;
24743;SDS011;12844;52.110;5.548;2022-07-22T12:52:53;0.88;;;0.80;;
24743;SDS011;12844;52.110;5.548;2022-07-22T12:55:30;0.70;;;0.70;;
24743;SDS011;12844;52.110;5.548;2022-07-22T12:57:57;1.08;;;0.70;;
24743;SDS011;12844;52.110;5.548;2022-07-22T13:00:24;0.70;;;0.68;;
24743;SDS011;12844;52.110;5.548;2022-07-22T13:02:51;1.00;;;0.80;;
24743;SDS011;12844;52.110;5.548;2022-07-22T13:05:18;0.90;;;0.70;;
24743;SDS011;12844;52.110;5.548;2022-07-22T13:07:44;0.85;;;0.80;;
24743;SDS011;12844;52.110;5.548;2022-07-22T13:10:10;1.00;;;0.90;;
24743;SDS011;12844;52.110;5.548;2022-07-22T13:12:37;0.88;;;0.82;;
24743;SDS011;12844;52.110;5.548;2022-07-22T13:15:04;0.77;;;0.70;;
24743;SDS011;12844;52.110;5.548;2022-07-22T13:17:30;1.17;;;0.80;;
24743;SDS011;12844;52.110;5.548;2022-07-22T13:19:55;1.08;;;0.82;;
24743;SDS011;12844;52.110;5.548;2022-07-22T13:22:21;1.00;;;0.90;;
24743;SDS011;12844;52.110;5.548;2022-07-22T13:24:47;0.70;;;0.70;;
24743;SDS011;12844;52.110;5.548;2022-07-22T13:27:12;0.75;;;0.70;;
24743;SDS011;12844;52.110;5.548;2022-07-22T13:29:38;0.98;;;0.82;;
24743;SDS011;12844;52.110;5.548;2022-07-22T13:32:04;0.80;;;0.70;;
24743;SDS011;12844;52.110;5.548;2022-07-22T13:34:30;0.80;;;0.80;;
24743;SDS011;12844;52.110;5.548;2022-07-22T13:36:56;0.98;;;0.90;;
24743;SDS011;12844;52.110;5.548;2022-07-22T13:39:22;0.98;;;0.80;;
24743;SDS011;12844;52.110;5.548;2022-07-22T13:41:47;0.73;;;0.70;;
24743;SDS011;12844;52.110;5.548;2022-07-22T13:44:13;0.90;;;0.80;;
24743;SDS011;12844;52.110;5.548;2022-07-22T13:46:38;1.25;;;0.80;;
24743;SDS011;12844;52.110;5.548;2022-07-22T13:49:04;1.20;;;0.90;;
24743;SDS011;12844;52.110;5.548;2022-07-22T13:51:30;1.00;;;0.90;;
24743;SDS011;12844;52.110;5.548;2022-07-22T13:53:56;0.80;;;0.80;;
24743;SDS011;12844;52.110;5.548;2022-07-22T13:56:21;0.90;;;0.90;;
24743;SDS011;12844;52.110;5.548;2022-07-22T13:58:47;1.23;;;1.00;;
24743;SDS011;12844;52.110;5.548;2022-07-22T14:01:12;0.93;;;0.88;;
24743;SDS011;12844;52.110;5.548;2022-07-22T14:03:38;1.10;;;0.80;;
24743;SDS011;12844;52.110;5.548;2022-07-22T14:06:04;1.52;;;0.82;;
24743;SDS011;12844;52.110;5.548;2022-07-22T14:08:30;1.00;;;0.90;;
24743;SDS011;12844;52.110;5.548;2022-07-22T14:10:56;0.85;;;0.85;;
24743;SDS011;12844;52.110;5.548;2022-07-22T14:13:22;1.23;;;1.00;;
24743;SDS011;12844;52.110;5.548;2022-07-22T14:15:47;1.20;;;0.90;;
24743;SDS011;12844;52.110;5.548;2022-07-22T14:18:13;1.20;;;1.02;;
24743;SDS011;12844;52.110;5.548;2022-07-22T14:20:39;1.48;;;0.98;;
24743;SDS011;12844;52.110;5.548;2022-07-22T14:23:05;1.42;;;1.10;;
24743;SDS011;12844;52.110;5.548;2022-07-22T14:25:32;1.10;;;1.00;;
24743;SDS011;12844;52.110;5.548;2022-07-22T14:27:58;0.88;;;0.88;;
24743;SDS011;12844;52.110;5.548;2022-07-22T14:30:24;1.02;;;0.93;;
24743;SDS011;12844;52.110;5.548;2022-07-22T14:32:49;1.08;;;0.90;;
24743;SDS011;12844;52.110;5.548;2022-07-22T14:35:15;1.42;;;1.05;;
24743;SDS011;12844;52.110;5.548;2022-07-22T14:37:41;1.40;;;0.95;;
24743;SDS011;12844;52.110;5.548;2022-07-22T14:40:06;1.15;;;1.05;;
24743;SDS011;12844;52.110;5.548;2022-07-22T14:42:32;1.13;;;1.00;;
24743;SDS011;12844;52.110;5.548;2022-07-22T14:44:58;0.98;;;0.90;;
24743;SDS011;12844;52.110;5.548;2022-07-22T14:47:24;1.05;;;0.95;;
24743;SDS011;12844;52.110;5.548;2022-07-22T14:49:49;1.20;;;1.10;;
24743;SDS011;12844;52.110;5.548;2022-07-22T14:52:15;1.10;;;1.00;;
24743;SDS011;12844;52.110;5.548;2022-07-22T14:54:40;1.08;;;0.98;;
24743;SDS011;12844;52.110;5.548;2022-07-22T14:57:06;1.08;;;0.98;;
24743;SDS011;12844;52.110;5.548;2022-07-22T14:59:32;1.33;;;0.90;;
24743;SDS011;12844;52.110;5.548;2022-07-22T15:01:58;1.77;;;1.10;;
24743;SDS011;12844;52.110;5.548;2022-07-22T15:04:23;1.00;;;0.90;;
24743;SDS011;12844;52.110;5.548;2022-07-22T15:06:49;1.15;;;1.05;;
24743;SDS011;12844;52.110;5.548;2022-07-22T15:09:14;0.93;;;0.90;;
24743;SDS011;12844;52.110;5.548;2022-07-22T15:11:40;0.93;;;0.80;;
24743;SDS011;12844;52.110;5.548;2022-07-22T15:14:06;1.00;;;0.90;;
24743;SDS011;12844;52.110;5.548;2022-07-22T15:16:31;0.95;;;0.90;;
24743;SDS011;12844;52.110;5.548;2022-07-22T15:18:57;1.15;;;1.02;;
24743;SDS011;12844;52.110;5.548;2022-07-22T15:21:22;0.90;;;0.90;;
24743;SDS011;12844;52.110;5.548;2022-07-22T15:23:48;1.25;;;1.00;;
24743;SDS011;12844;52.110;5.548;2022-07-22T15:26:14;1.25;;;0.90;;
24743;SDS011;12844;52.110;5.548;2022-07-22T15:28:39;1.23;;;1.00;;
24743;SDS011;12844;52.110;5.548;2022-07-22T15:31:05;1.30;;;1.20;;
24743;SDS011;12844;52.110;5.548;2022-07-22T15:33:31;1.20;;;1.10;;
24743;SDS011;12844;52.110;5.548;2022-07-22T15:35:57;1.50;;;1.30;;